createdAt,value
2016-11-14T00:00:02.866Z,1027.28
2016-11-14T00:00:43.599Z,1027.33
2016-11-14T00:01:24.303Z,1027.34
2016-11-14T00:02:05.047Z,1027.35
2016-11-14T00:02:45.762Z,1027.34
2016-11-14T00:03:26.473Z,1027.36
2016-11-14T00:04:07.195Z,1027.39
2016-11-14T00:04:47.821Z,1027.38
2016-11-14T00:05:28.489Z,1027.37
2016-11-14T00:06:09.195Z,1027.39
2016-11-14T00:06:49.971Z,1027.4
2016-11-14T00:07:30.739Z,1027.43
2016-11-14T00:08:11.499Z,1027.46
2016-11-14T00:08:52.141Z,1027.48
2016-11-14T00:09:32.724Z,1027.47
2016-11-14T00:10:13.468Z,1027.49
2016-11-14T00:10:54.129Z,1027.43
2016-11-14T00:11:34.714Z,1027.47
2016-11-14T00:12:15.333Z,1027.47
2016-11-14T00:12:55.992Z,1027.44
2016-11-14T00:13:36.606Z,1027.46
2016-11-14T00:14:17.323Z,1027.46
2016-11-14T00:14:58.053Z,1027.48
2016-11-14T00:15:38.631Z,1027.5
2016-11-14T00:16:19.227Z,1027.47
2016-11-14T00:16:59.821Z,1027.49
2016-11-14T00:17:40.485Z,1027.5
2016-11-14T00:18:21.123Z,1027.54
2016-11-14T00:19:01.758Z,1027.52
2016-11-14T00:19:42.400Z,1027.54
2016-11-14T00:20:23.086Z,1027.55
2016-11-14T00:21:03.683Z,1027.59
2016-11-14T00:21:44.398Z,1027.61
2016-11-14T00:22:25.025Z,1027.63
2016-11-14T00:23:05.755Z,1027.6
2016-11-14T00:23:46.457Z,1027.64
2016-11-14T00:24:27.149Z,1027.59
2016-11-14T00:25:08.511Z,1027.61
2016-11-14T00:25:49.123Z,1027.59
2016-11-14T00:26:29.703Z,1027.59
2016-11-14T00:27:10.427Z,1027.6
2016-11-14T00:27:51.067Z,1027.62
2016-11-14T00:28:31.731Z,1027.59
2016-11-14T00:29:12.403Z,1027.58
2016-11-14T00:29:53.087Z,1027.55
2016-11-14T00:30:33.811Z,1027.55
2016-11-14T00:31:14.524Z,1027.55
2016-11-14T00:31:55.259Z,1027.54
2016-11-14T00:32:35.954Z,1027.52
2016-11-14T00:33:16.670Z,1027.49
2016-11-14T00:33:57.426Z,1027.52
2016-11-14T00:34:38.035Z,1027.49
2016-11-14T00:35:18.731Z,1027.46
2016-11-14T00:35:59.517Z,1027.49
2016-11-14T00:36:40.173Z,1027.5
2016-11-14T00:37:20.817Z,1027.43
2016-11-14T00:38:01.516Z,1027.42
2016-11-14T00:38:42.169Z,1027.37
2016-11-14T00:39:22.782Z,1027.4
2016-11-14T00:40:03.481Z,1027.36
2016-11-14T00:40:44.171Z,1027.36
2016-11-14T00:41:24.781Z,1027.37
2016-11-14T00:42:05.488Z,1027.38
2016-11-14T00:42:46.195Z,1027.33
2016-11-14T00:43:26.883Z,1027.36
2016-11-14T00:44:07.581Z,1027.34
2016-11-14T00:44:48.211Z,1027.35
2016-11-14T00:45:29.041Z,1027.35
2016-11-14T00:46:09.677Z,1027.34
2016-11-14T00:46:50.313Z,1027.36
2016-11-14T00:47:31.077Z,1027.37
2016-11-14T00:48:11.655Z,1027.32
2016-11-14T00:48:52.311Z,1027.33
2016-11-14T00:49:32.936Z,1027.32
2016-11-14T00:50:13.597Z,1027.31
2016-11-14T00:50:54.243Z,1027.31
2016-11-14T00:51:34.839Z,1027.28
2016-11-14T00:52:15.466Z,1027.31
2016-11-14T00:52:56.127Z,1027.3
2016-11-14T00:53:36.716Z,1027.29
2016-11-14T00:54:17.389Z,1027.28
2016-11-14T00:54:58.080Z,1027.33
2016-11-14T00:55:38.754Z,1027.3
2016-11-14T00:56:19.426Z,1027.3
2016-11-14T00:57:00.081Z,1027.3
2016-11-14T00:57:40.732Z,1027.3
2016-11-14T00:58:21.398Z,1027.3
2016-11-14T00:59:02.090Z,1027.34
2016-11-14T00:59:42.746Z,1027.34
2016-11-14T01:00:23.380Z,1027.35
2016-11-14T01:01:04.079Z,1027.42
2016-11-14T01:01:44.851Z,1027.45
2016-11-14T01:02:25.650Z,1027.46
2016-11-14T01:03:06.385Z,1027.47
2016-11-14T01:03:47.030Z,1027.47
2016-11-14T01:04:27.700Z,1027.45
2016-11-14T01:05:08.349Z,1027.46
2016-11-14T01:05:49.019Z,1027.45
2016-11-14T01:06:29.629Z,1027.43
2016-11-14T01:07:10.411Z,1027.42
2016-11-14T01:07:51.070Z,1027.39
2016-11-14T01:08:31.730Z,1027.38
2016-11-14T01:09:12.438Z,1027.38
2016-11-14T01:09:53.058Z,1027.35
2016-11-14T01:10:33.690Z,1027.37
2016-11-14T01:11:14.394Z,1027.33
2016-11-14T01:11:55.157Z,1027.35
2016-11-14T01:12:35.795Z,1027.32
2016-11-14T01:13:16.432Z,1027.33
2016-11-14T01:13:57.108Z,1027.31
2016-11-14T01:14:37.810Z,1027.34
2016-11-14T01:15:18.432Z,1027.3
2016-11-14T01:15:59.118Z,1027.34
2016-11-14T01:16:39.876Z,1027.3
2016-11-14T01:17:20.558Z,1027.35
2016-11-14T01:18:01.217Z,1027.33
2016-11-14T01:18:42.003Z,1027.31
2016-11-14T01:19:22.698Z,1027.3
2016-11-14T01:20:03.418Z,1027.31
2016-11-14T01:20:44.087Z,1027.3
2016-11-14T01:21:24.815Z,1027.29
2016-11-14T01:22:05.448Z,1027.27
2016-11-14T01:22:46.099Z,1027.28
2016-11-14T01:23:26.761Z,1027.28
2016-11-14T01:24:07.372Z,1027.3
2016-11-14T01:24:48.061Z,1027.24
2016-11-14T01:25:28.823Z,1027.25
2016-11-14T01:26:09.408Z,1027.27
2016-11-14T01:26:50.201Z,1027.27
2016-11-14T01:27:30.875Z,1027.27
2016-11-14T01:28:11.539Z,1027.29
2016-11-14T01:28:52.215Z,1027.3
2016-11-14T01:29:32.869Z,1027.32
2016-11-14T01:30:13.517Z,1027.34
2016-11-14T01:30:54.117Z,1027.34
2016-11-14T01:31:34.775Z,1027.37
2016-11-14T01:32:15.389Z,1027.38
2016-11-14T01:32:56.061Z,1027.37
2016-11-14T01:33:36.713Z,1027.35
2016-11-14T01:34:17.311Z,1027.33
2016-11-14T01:34:58.064Z,1027.35
2016-11-14T01:35:38.706Z,1027.38
2016-11-14T01:36:19.407Z,1027.37
2016-11-14T01:37:00.030Z,1027.37
2016-11-14T01:37:40.710Z,1027.42
2016-11-14T01:38:21.383Z,1027.44
2016-11-14T01:39:02.145Z,1027.45
2016-11-14T01:39:42.896Z,1027.44
2016-11-14T01:40:23.670Z,1027.49
2016-11-14T01:41:04.324Z,1027.49
2016-11-14T01:41:45.006Z,1027.51
2016-11-14T01:42:25.638Z,1027.49
2016-11-14T01:43:06.369Z,1027.53
2016-11-14T01:43:47.048Z,1027.59
2016-11-14T01:44:27.809Z,1027.59
2016-11-14T01:45:08.533Z,1027.59
2016-11-14T01:45:49.133Z,1027.6
2016-11-14T01:46:29.866Z,1027.62
2016-11-14T01:47:10.504Z,1027.66
2016-11-14T01:47:51.225Z,1027.66
2016-11-14T01:48:32.000Z,1027.65
2016-11-14T01:49:12.642Z,1027.65
2016-11-14T01:49:53.269Z,1027.68
2016-11-14T01:50:34.018Z,1027.66
2016-11-14T01:51:14.702Z,1027.68
2016-11-14T01:51:55.383Z,1027.72
2016-11-14T01:52:36.112Z,1027.74
2016-11-14T01:53:16.811Z,1027.75
2016-11-14T01:53:57.627Z,1027.78
2016-11-14T01:54:38.320Z,1027.78
2016-11-14T01:55:18.979Z,1027.8
2016-11-14T01:55:59.651Z,1027.84
2016-11-14T01:56:40.324Z,1027.83
2016-11-14T01:57:21.111Z,1027.87
2016-11-14T01:58:01.815Z,1027.84
2016-11-14T01:58:42.423Z,1027.83
2016-11-14T01:59:23.101Z,1027.84
2016-11-14T02:00:03.805Z,1027.86
2016-11-14T02:00:44.479Z,1027.83
2016-11-14T02:01:25.145Z,1027.86
2016-11-14T02:02:05.773Z,1027.87
2016-11-14T02:02:46.451Z,1027.9
2016-11-14T02:03:27.093Z,1027.93
2016-11-14T02:04:07.761Z,1027.96
2016-11-14T02:04:48.399Z,1027.91
2016-11-14T02:05:29.142Z,1027.93
2016-11-14T02:06:09.717Z,1027.93
2016-11-14T02:06:50.328Z,1027.94
2016-11-14T02:07:31.004Z,1027.93
2016-11-14T02:08:11.593Z,1027.94
2016-11-14T02:08:52.223Z,1027.93
2016-11-14T02:09:32.815Z,1027.94
2016-11-14T02:10:13.564Z,1027.91
2016-11-14T02:10:54.122Z,1027.94
2016-11-14T02:11:34.791Z,1027.89
2016-11-14T02:12:15.377Z,1027.89
2016-11-14T02:12:56.020Z,1027.86
2016-11-14T02:13:36.708Z,1027.87
2016-11-14T02:14:17.284Z,1027.89
2016-11-14T02:14:57.945Z,1027.88
2016-11-14T02:15:38.600Z,1027.84
2016-11-14T02:16:19.240Z,1027.83
2016-11-14T02:16:59.838Z,1027.83
2016-11-14T02:17:40.453Z,1027.8
2016-11-14T02:18:21.068Z,1027.84
2016-11-14T02:19:01.841Z,1027.82
2016-11-14T02:19:42.499Z,1027.79
2016-11-14T02:20:23.240Z,1027.78
2016-11-14T02:21:03.883Z,1027.8
2016-11-14T02:21:44.559Z,1027.8
2016-11-14T02:22:25.253Z,1027.78
2016-11-14T02:23:05.926Z,1027.78
2016-11-14T02:23:46.594Z,1027.79
2016-11-14T02:24:27.253Z,1027.77
2016-11-14T02:25:07.949Z,1027.8
2016-11-14T02:25:48.587Z,1027.82
2016-11-14T02:26:29.175Z,1027.83
2016-11-14T02:27:09.894Z,1027.81
2016-11-14T02:27:50.547Z,1027.83
2016-11-14T02:28:31.230Z,1027.85
2016-11-14T02:29:11.794Z,1027.83
2016-11-14T02:29:52.456Z,1027.88
2016-11-14T02:30:33.131Z,1027.84
2016-11-14T02:31:13.725Z,1027.86
2016-11-14T02:31:54.468Z,1027.87
2016-11-14T02:32:35.096Z,1027.85
2016-11-14T02:33:15.758Z,1027.86
2016-11-14T02:33:56.418Z,1027.85
2016-11-14T02:34:37.096Z,1027.88
2016-11-14T02:35:17.842Z,1027.87
2016-11-14T02:35:58.480Z,1027.85
2016-11-14T02:36:39.148Z,1027.84
2016-11-14T02:37:19.859Z,1027.85
2016-11-14T02:38:00.516Z,1027.85
2016-11-14T02:38:41.335Z,1027.86
2016-11-14T02:39:22.001Z,1027.81
2016-11-14T02:40:02.774Z,1027.82
2016-11-14T02:40:43.439Z,1027.84
2016-11-14T02:41:24.107Z,1027.81
2016-11-14T02:42:04.767Z,1027.82
2016-11-14T02:42:45.517Z,1027.82
2016-11-14T02:43:26.111Z,1027.83
2016-11-14T02:44:06.873Z,1027.86
2016-11-14T02:44:47.479Z,1027.87
2016-11-14T02:45:28.208Z,1027.86
2016-11-14T02:46:08.849Z,1027.85
2016-11-14T02:46:49.586Z,1027.91
2016-11-14T02:47:30.214Z,1027.85
2016-11-14T02:48:10.926Z,1027.86
2016-11-14T02:48:51.624Z,1027.82
2016-11-14T02:49:32.288Z,1027.82
2016-11-14T02:50:12.956Z,1027.81
2016-11-14T02:50:54.568Z,1027.8
2016-11-14T02:51:34.220Z,1027.79
2016-11-14T02:52:14.894Z,1027.8
2016-11-14T02:52:55.483Z,1027.85
2016-11-14T02:53:36.145Z,1027.82
2016-11-14T02:54:16.829Z,1027.85
2016-11-14T02:54:57.389Z,1027.87
2016-11-14T02:55:37.995Z,1027.84
2016-11-14T02:56:18.700Z,1027.91
2016-11-14T02:56:59.401Z,1027.91
2016-11-14T02:57:40.087Z,1027.87
2016-11-14T02:58:20.767Z,1027.87
2016-11-14T02:59:01.384Z,1027.87
2016-11-14T02:59:41.962Z,1027.88
2016-11-14T03:00:22.642Z,1027.87
2016-11-14T03:01:03.306Z,1027.88
2016-11-14T03:01:43.978Z,1027.9
2016-11-14T03:02:24.638Z,1027.88
2016-11-14T03:03:05.334Z,1027.85
2016-11-14T03:03:46.014Z,1027.92
2016-11-14T03:04:26.893Z,1027.89
2016-11-14T03:05:07.586Z,1027.9
2016-11-14T03:05:48.302Z,1027.9
2016-11-14T03:06:28.972Z,1027.91
2016-11-14T03:07:09.669Z,1027.88
2016-11-14T03:07:50.283Z,1027.86
2016-11-14T03:08:30.965Z,1027.87
2016-11-14T03:09:11.716Z,1027.85
2016-11-14T03:09:52.462Z,1027.86
2016-11-14T03:10:33.067Z,1027.84
2016-11-14T03:11:13.751Z,1027.86
2016-11-14T03:11:54.481Z,1027.85
2016-11-14T03:12:35.133Z,1027.87
2016-11-14T03:13:15.729Z,1027.9
2016-11-14T03:13:56.413Z,1027.89
2016-11-14T03:14:37.089Z,1027.92
2016-11-14T03:15:17.752Z,1027.88
2016-11-14T03:15:58.322Z,1027.89
2016-11-14T03:16:39.002Z,1027.89
2016-11-14T03:17:19.669Z,1027.91
2016-11-14T03:18:00.357Z,1027.89
2016-11-14T03:18:41.097Z,1027.85
2016-11-14T03:19:21.877Z,1027.86
2016-11-14T03:20:02.582Z,1027.85
2016-11-14T03:20:43.222Z,1027.84
2016-11-14T03:21:24.524Z,1027.86
2016-11-14T03:22:05.216Z,1027.85
2016-11-14T03:22:45.929Z,1027.82
2016-11-14T03:23:26.600Z,1027.78
2016-11-14T03:24:07.279Z,1027.76
2016-11-14T03:24:47.924Z,1027.8
2016-11-14T03:25:28.603Z,1027.79
2016-11-14T03:26:09.280Z,1027.76
2016-11-14T03:26:49.986Z,1027.75
2016-11-14T03:27:30.738Z,1027.76
2016-11-14T03:28:11.402Z,1027.74
2016-11-14T03:28:52.084Z,1027.75
2016-11-14T03:29:32.796Z,1027.71
2016-11-14T03:30:13.518Z,1027.71
2016-11-14T03:30:54.166Z,1027.71
2016-11-14T03:31:34.840Z,1027.74
2016-11-14T03:32:15.488Z,1027.72
2016-11-14T03:32:56.118Z,1027.77
2016-11-14T03:33:36.824Z,1027.73
2016-11-14T03:34:17.584Z,1027.77
2016-11-14T03:34:58.248Z,1027.81
2016-11-14T03:35:38.894Z,1027.79
2016-11-14T03:36:19.528Z,1027.8
2016-11-14T03:37:00.200Z,1027.77
2016-11-14T03:37:40.850Z,1027.79
2016-11-14T03:38:21.528Z,1027.81
2016-11-14T03:39:02.113Z,1027.77
2016-11-14T03:39:42.918Z,1027.8
2016-11-14T03:40:23.754Z,1027.79
2016-11-14T03:41:04.462Z,1027.77
2016-11-14T03:41:45.035Z,1027.79
2016-11-14T03:42:25.650Z,1027.78
2016-11-14T03:43:06.314Z,1027.78
2016-11-14T03:43:46.957Z,1027.82
2016-11-14T03:44:27.705Z,1027.79
2016-11-14T03:45:08.474Z,1027.79
2016-11-14T03:45:49.216Z,1027.8
2016-11-14T03:46:29.849Z,1027.81
2016-11-14T03:47:10.575Z,1027.86
2016-11-14T03:47:52.078Z,1027.85
2016-11-14T03:48:32.009Z,1027.91
2016-11-14T03:49:12.873Z,1027.86
2016-11-14T03:49:53.641Z,1027.87
2016-11-14T03:50:34.297Z,1027.89
2016-11-14T03:51:14.939Z,1027.85
2016-11-14T03:51:55.615Z,1027.88
2016-11-14T03:52:36.293Z,1027.88
2016-11-14T03:53:16.965Z,1027.89
2016-11-14T03:53:57.649Z,1027.89
2016-11-14T03:54:38.315Z,1027.89
2016-11-14T03:55:19.015Z,1027.94
2016-11-14T03:55:59.735Z,1027.9
2016-11-14T03:56:40.393Z,1027.92
2016-11-14T03:57:21.005Z,1027.91
2016-11-14T03:58:01.606Z,1027.9
2016-11-14T03:58:42.231Z,1027.91
2016-11-14T03:59:22.899Z,1027.89
2016-11-14T04:00:03.625Z,1027.9
2016-11-14T04:00:44.275Z,1027.86
2016-11-14T04:01:24.907Z,1027.91
2016-11-14T04:02:05.601Z,1027.92
2016-11-14T04:02:46.283Z,1027.88
2016-11-14T04:03:26.983Z,1027.93
2016-11-14T04:04:07.635Z,1027.94
2016-11-14T04:04:48.302Z,1027.97
2016-11-14T04:05:28.977Z,1028
2016-11-14T04:06:09.630Z,1027.99
2016-11-14T04:06:50.268Z,1028.01
2016-11-14T04:07:30.902Z,1028.04
2016-11-14T04:08:11.618Z,1028.03
2016-11-14T04:08:52.254Z,1028.06
2016-11-14T04:09:32.952Z,1028.03
2016-11-14T04:10:13.642Z,1028.06
2016-11-14T04:10:54.284Z,1028.07
2016-11-14T04:11:34.892Z,1028.06
2016-11-14T04:12:15.625Z,1028.04
2016-11-14T04:12:56.344Z,1028.08
2016-11-14T04:13:36.984Z,1028.08
2016-11-14T04:14:17.656Z,1028.07
2016-11-14T04:14:58.296Z,1028.09
2016-11-14T04:15:39.076Z,1028.05
2016-11-14T04:16:19.931Z,1028.07
2016-11-14T04:17:00.557Z,1028.09
2016-11-14T04:17:41.156Z,1028.11
2016-11-14T04:18:21.900Z,1028.08
2016-11-14T04:19:02.620Z,1028.08
2016-11-14T04:19:43.317Z,1028.06
2016-11-14T04:20:23.937Z,1028.05
2016-11-14T04:21:05.312Z,1028.08
2016-11-14T04:21:45.895Z,1028.05
2016-11-14T04:22:26.513Z,1028.04
2016-11-14T04:23:07.271Z,1028
2016-11-14T04:23:47.900Z,1028.02
2016-11-14T04:24:28.493Z,1028.01
2016-11-14T04:25:09.187Z,1028.04
2016-11-14T04:25:49.968Z,1028.04
2016-11-14T04:26:30.617Z,1028.07
2016-11-14T04:27:11.367Z,1028.07
2016-11-14T04:27:52.035Z,1028.06
2016-11-14T04:28:32.729Z,1028.11
2016-11-14T04:29:13.375Z,1028.11
2016-11-14T04:29:54.057Z,1028.08
2016-11-14T04:30:34.627Z,1028.13
2016-11-14T04:31:15.203Z,1028.08
2016-11-14T04:31:55.847Z,1028.08
2016-11-14T04:32:36.517Z,1028.06
2016-11-14T04:33:17.223Z,1028.11
2016-11-14T04:33:57.922Z,1028.15
2016-11-14T04:34:38.644Z,1028.11
2016-11-14T04:35:19.480Z,1028.14
2016-11-14T04:36:00.234Z,1028.14
2016-11-14T04:36:40.947Z,1028.16
2016-11-14T04:37:21.676Z,1028.12
2016-11-14T04:38:02.354Z,1028.14
2016-11-14T04:38:43.006Z,1028.14
2016-11-14T04:39:23.732Z,1028.14
2016-11-14T04:40:04.415Z,1028.14
2016-11-14T04:40:45.009Z,1028.1
2016-11-14T04:41:25.641Z,1028.13
2016-11-14T04:42:06.333Z,1028.18
2016-11-14T04:42:47.050Z,1028.17
2016-11-14T04:43:27.696Z,1028.17
2016-11-14T04:44:08.353Z,1028.2
2016-11-14T04:44:49.180Z,1028.17
2016-11-14T04:45:29.898Z,1028.21
2016-11-14T04:46:10.510Z,1028.23
2016-11-14T04:46:51.341Z,1028.19
2016-11-14T04:47:32.141Z,1028.19
2016-11-14T04:48:12.824Z,1028.2
2016-11-14T04:48:53.580Z,1028.2
2016-11-14T04:49:34.246Z,1028.21
2016-11-14T04:50:14.956Z,1028.2
2016-11-14T04:50:55.626Z,1028.22
2016-11-14T04:51:36.380Z,1028.22
2016-11-14T04:52:16.979Z,1028.19
2016-11-14T04:52:57.802Z,1028.16
2016-11-14T04:53:38.573Z,1028.2
2016-11-14T04:54:19.304Z,1028.21
2016-11-14T04:54:59.922Z,1028.19
2016-11-14T04:55:40.733Z,1028.22
2016-11-14T04:56:21.385Z,1028.19
2016-11-14T04:57:01.966Z,1028.22
2016-11-14T04:57:42.651Z,1028.21
2016-11-14T04:58:23.236Z,1028.27
2016-11-14T04:59:03.935Z,1028.22
2016-11-14T04:59:44.614Z,1028.24
2016-11-14T05:00:25.308Z,1028.27
2016-11-14T05:01:05.881Z,1028.27
2016-11-14T05:01:46.527Z,1028.3
2016-11-14T05:02:27.221Z,1028.29
2016-11-14T05:03:07.919Z,1028.3
2016-11-14T05:03:48.697Z,1028.26
2016-11-14T05:04:29.321Z,1028.2
2016-11-14T05:05:09.915Z,1028.24
2016-11-14T05:05:50.532Z,1028.22
2016-11-14T05:06:31.235Z,1028.21
2016-11-14T05:07:11.942Z,1028.21
2016-11-14T05:07:52.664Z,1028.2
2016-11-14T05:08:33.341Z,1028.16
2016-11-14T05:09:14.018Z,1028.17
2016-11-14T05:09:54.741Z,1028.16
2016-11-14T05:10:35.397Z,1028.21
2016-11-14T05:11:16.138Z,1028.22
2016-11-14T05:11:56.836Z,1028.24
2016-11-14T05:12:37.474Z,1028.23
2016-11-14T05:13:18.166Z,1028.2
2016-11-14T05:13:58.886Z,1028.23
2016-11-14T05:14:39.455Z,1028.23
2016-11-14T05:15:20.109Z,1028.22
2016-11-14T05:16:00.733Z,1028.16
2016-11-14T05:16:41.455Z,1028.22
2016-11-14T05:17:22.142Z,1028.2
2016-11-14T05:18:02.846Z,1028.26
2016-11-14T05:18:43.564Z,1028.2
2016-11-14T05:19:24.394Z,1028.24
2016-11-14T05:20:05.126Z,1028.22
2016-11-14T05:20:45.888Z,1028.24
2016-11-14T05:21:26.561Z,1028.26
2016-11-14T05:22:07.310Z,1028.27
2016-11-14T05:22:48.176Z,1028.28
2016-11-14T05:23:29.035Z,1028.27
2016-11-14T05:24:09.720Z,1028.28
2016-11-14T05:24:50.420Z,1028.29
2016-11-14T05:25:31.124Z,1028.26
2016-11-14T05:26:11.767Z,1028.26
2016-11-14T05:26:52.498Z,1028.29
2016-11-14T05:27:34.106Z,1028.25
2016-11-14T05:28:14.190Z,1028.23
2016-11-14T05:28:54.937Z,1028.26
2016-11-14T05:29:35.666Z,1028.23
2016-11-14T05:30:16.362Z,1028.2
2016-11-14T05:30:56.942Z,1028.21
2016-11-14T05:31:37.645Z,1028.23
2016-11-14T05:32:18.295Z,1028.23
2016-11-14T05:32:58.957Z,1028.21
2016-11-14T05:33:39.666Z,1028.2
2016-11-14T05:34:20.465Z,1028.24
2016-11-14T05:35:01.164Z,1028.23
2016-11-14T05:35:41.993Z,1028.2
2016-11-14T05:36:22.765Z,1028.27
2016-11-14T05:37:03.415Z,1028.2
2016-11-14T05:37:44.093Z,1028.22
2016-11-14T05:38:24.691Z,1028.23
2016-11-14T05:39:05.431Z,1028.19
2016-11-14T05:39:46.111Z,1028.17
2016-11-14T05:40:26.714Z,1028.2
2016-11-14T05:41:07.447Z,1028.17
2016-11-14T05:41:48.273Z,1028.15
2016-11-14T05:42:29.027Z,1028.15
2016-11-14T05:43:09.714Z,1028.12
2016-11-14T05:43:50.475Z,1028.12
2016-11-14T05:44:31.105Z,1028.08
2016-11-14T05:45:11.780Z,1028.07
2016-11-14T05:45:52.595Z,1028.07
2016-11-14T05:46:33.342Z,1028.04
2016-11-14T05:47:14.039Z,1028.03
2016-11-14T05:47:54.739Z,1028.03
2016-11-14T05:48:35.485Z,1027.99
2016-11-14T05:49:16.234Z,1028.07
2016-11-14T05:49:56.908Z,1028.05
2016-11-14T05:50:37.512Z,1028.06
2016-11-14T05:51:18.210Z,1028.07
2016-11-14T05:51:58.933Z,1028.14
2016-11-14T05:52:39.602Z,1028.12
2016-11-14T05:53:21.174Z,1028.14
2016-11-14T05:54:01.914Z,1028.13
2016-11-14T05:54:42.543Z,1028.14
2016-11-14T05:55:23.264Z,1028.18
2016-11-14T05:56:04.022Z,1028.19
2016-11-14T05:56:44.723Z,1028.18
2016-11-14T05:57:25.301Z,1028.18
2016-11-14T05:58:06.002Z,1028.2
2016-11-14T05:58:46.701Z,1028.22
2016-11-14T05:59:27.466Z,1028.26
2016-11-14T06:00:08.219Z,1028.22
2016-11-14T06:00:48.799Z,1028.29
2016-11-14T06:01:30.202Z,1028.25
2016-11-14T06:02:11.000Z,1028.25
2016-11-14T06:02:51.957Z,1028.27
2016-11-14T06:03:32.631Z,1028.3
2016-11-14T06:04:13.446Z,1028.32
2016-11-14T06:04:54.093Z,1028.29
2016-11-14T06:05:34.835Z,1028.34
2016-11-14T06:06:15.492Z,1028.32
2016-11-14T06:06:56.229Z,1028.31
2016-11-14T06:07:36.903Z,1028.34
2016-11-14T06:08:17.547Z,1028.39
2016-11-14T06:08:58.189Z,1028.33
2016-11-14T06:09:38.860Z,1028.36
2016-11-14T06:10:19.558Z,1028.41
2016-11-14T06:11:00.252Z,1028.43
2016-11-14T06:11:41.068Z,1028.46
2016-11-14T06:12:21.710Z,1028.47
2016-11-14T06:13:02.415Z,1028.49
2016-11-14T06:13:43.140Z,1028.47
2016-11-14T06:14:23.922Z,1028.5
2016-11-14T06:15:04.596Z,1028.55
2016-11-14T06:15:45.205Z,1028.48
2016-11-14T06:16:25.870Z,1028.54
2016-11-14T06:17:06.640Z,1028.56
2016-11-14T06:17:47.360Z,1028.55
2016-11-14T06:18:28.095Z,1028.55
2016-11-14T06:19:08.724Z,1028.57
2016-11-14T06:19:49.417Z,1028.54
2016-11-14T06:20:30.775Z,1028.6
2016-11-14T06:21:12.030Z,1028.57
2016-11-14T06:21:52.718Z,1028.64
2016-11-14T06:22:33.389Z,1028.59
2016-11-14T06:23:14.040Z,1028.69
2016-11-14T06:23:54.703Z,1028.67
2016-11-14T06:24:35.351Z,1028.69
2016-11-14T06:25:15.960Z,1028.7
2016-11-14T06:25:56.649Z,1028.68
2016-11-14T06:26:37.331Z,1028.71
2016-11-14T06:27:18.003Z,1028.72
2016-11-14T06:27:58.673Z,1028.7
2016-11-14T06:28:39.412Z,1028.65
2016-11-14T06:29:20.187Z,1028.67
2016-11-14T06:30:00.803Z,1028.64
2016-11-14T06:30:41.473Z,1028.61
2016-11-14T06:31:22.143Z,1028.63
2016-11-14T06:32:02.850Z,1028.63
2016-11-14T06:32:43.625Z,1028.63
2016-11-14T06:33:24.361Z,1028.64
2016-11-14T06:34:05.099Z,1028.64
2016-11-14T06:34:45.828Z,1028.65
2016-11-14T06:35:26.479Z,1028.68
2016-11-14T06:36:07.072Z,1028.68
2016-11-14T06:36:47.849Z,1028.71
2016-11-14T06:37:28.563Z,1028.72
2016-11-14T06:38:09.292Z,1028.72
2016-11-14T06:38:49.914Z,1028.77
2016-11-14T06:39:30.601Z,1028.78
2016-11-14T06:40:11.457Z,1028.83
2016-11-14T06:40:52.226Z,1028.83
2016-11-14T06:41:32.978Z,1028.81
2016-11-14T06:42:13.729Z,1028.87
2016-11-14T06:42:54.430Z,1028.87
2016-11-14T06:43:35.146Z,1028.89
2016-11-14T06:44:15.884Z,1028.89
2016-11-14T06:44:56.457Z,1028.88
2016-11-14T06:45:37.196Z,1028.89
2016-11-14T06:46:18.000Z,1028.9
2016-11-14T06:46:58.724Z,1028.92
2016-11-14T06:47:39.415Z,1028.9
2016-11-14T06:48:20.108Z,1028.92
2016-11-14T06:49:00.793Z,1028.88
2016-11-14T06:49:41.429Z,1028.92
2016-11-14T06:50:22.061Z,1028.91
2016-11-14T06:51:02.841Z,1028.89
2016-11-14T06:51:43.569Z,1028.96
2016-11-14T06:52:24.283Z,1028.97
2016-11-14T06:53:04.971Z,1029
2016-11-14T06:53:45.607Z,1028.99
2016-11-14T06:54:26.201Z,1029
2016-11-14T06:55:06.909Z,1029.03
2016-11-14T06:55:47.568Z,1029.04
2016-11-14T06:56:28.360Z,1029.06
2016-11-14T06:57:09.050Z,1029.06
2016-11-14T06:57:49.781Z,1029.06
2016-11-14T06:58:30.572Z,1029.08
2016-11-14T06:59:11.243Z,1029.11
2016-11-14T06:59:51.893Z,1029.07
2016-11-14T07:00:32.574Z,1029.11
2016-11-14T07:01:13.230Z,1029.11
2016-11-14T07:01:53.992Z,1029.09
2016-11-14T07:02:34.649Z,1029.08
2016-11-14T07:03:15.280Z,1029.15
2016-11-14T07:03:56.246Z,1029.14
2016-11-14T07:04:36.902Z,1029.16
2016-11-14T07:05:17.654Z,1029.21
2016-11-14T07:05:58.308Z,1029.2
2016-11-14T07:06:39.009Z,1029.2
2016-11-14T07:07:19.724Z,1029.22
2016-11-14T07:08:00.538Z,1029.21
2016-11-14T07:08:41.219Z,1029.23
2016-11-14T07:09:21.991Z,1029.25
2016-11-14T07:10:02.627Z,1029.23
2016-11-14T07:10:43.349Z,1029.26
2016-11-14T07:11:24.073Z,1029.25
2016-11-14T07:12:04.744Z,1029.24
2016-11-14T07:12:45.485Z,1029.27
2016-11-14T07:13:26.147Z,1029.33
2016-11-14T07:14:06.753Z,1029.22
2016-11-14T07:14:47.495Z,1029.29
2016-11-14T07:15:28.177Z,1029.3
2016-11-14T07:16:08.821Z,1029.26
2016-11-14T07:16:49.599Z,1029.29
2016-11-14T07:17:30.246Z,1029.37
2016-11-14T07:18:10.870Z,1029.35
2016-11-14T07:18:51.476Z,1029.39
2016-11-14T07:19:32.292Z,1029.37
2016-11-14T07:20:13.011Z,1029.43
2016-11-14T07:20:54.203Z,1029.42
2016-11-14T07:21:34.918Z,1029.37
2016-11-14T07:22:15.645Z,1029.4
2016-11-14T07:22:56.334Z,1029.37
2016-11-14T07:23:36.946Z,1029.43
2016-11-14T07:24:17.551Z,1029.44
2016-11-14T07:24:58.375Z,1029.39
2016-11-14T07:25:39.110Z,1029.41
2016-11-14T07:26:19.772Z,1029.4
2016-11-14T07:27:00.440Z,1029.38
2016-11-14T07:27:41.161Z,1029.39
2016-11-14T07:28:21.946Z,1029.41
2016-11-14T07:29:02.612Z,1029.38
2016-11-14T07:29:43.329Z,1029.38
2016-11-14T07:30:24.106Z,1029.4
2016-11-14T07:31:04.827Z,1029.44
2016-11-14T07:31:45.524Z,1029.38
2016-11-14T07:32:26.211Z,1029.4
2016-11-14T07:33:06.901Z,1029.41
2016-11-14T07:33:47.557Z,1029.42
2016-11-14T07:34:28.399Z,1029.37
2016-11-14T07:35:09.171Z,1029.37
2016-11-14T07:35:49.915Z,1029.39
2016-11-14T07:36:30.731Z,1029.37
2016-11-14T07:37:11.364Z,1029.41
2016-11-14T07:37:52.369Z,1029.45
2016-11-14T07:38:32.737Z,1029.52
2016-11-14T07:39:13.339Z,1029.51
2016-11-14T07:39:54.056Z,1029.51
2016-11-14T07:40:34.735Z,1029.55
2016-11-14T07:41:15.369Z,1029.53
2016-11-14T07:41:55.993Z,1029.54
2016-11-14T07:42:36.615Z,1029.51
2016-11-14T07:43:17.314Z,1029.51
2016-11-14T07:43:58.034Z,1029.56
2016-11-14T07:44:38.815Z,1029.57
2016-11-14T07:45:19.536Z,1029.57
2016-11-14T07:46:00.139Z,1029.57
2016-11-14T07:46:40.792Z,1029.54
2016-11-14T07:47:21.487Z,1029.59
2016-11-14T07:48:02.190Z,1029.58
2016-11-14T07:48:42.832Z,1029.55
2016-11-14T07:49:23.587Z,1029.59
2016-11-14T07:50:04.282Z,1029.55
2016-11-14T07:50:44.970Z,1029.55
2016-11-14T07:51:25.733Z,1029.55
2016-11-14T07:52:06.391Z,1029.5
2016-11-14T07:52:47.129Z,1029.45
2016-11-14T07:53:27.990Z,1029.47
2016-11-14T07:54:08.702Z,1029.44
2016-11-14T07:54:49.355Z,1029.43
2016-11-14T07:55:30.063Z,1029.36
2016-11-14T07:56:10.730Z,1029.41
2016-11-14T07:56:51.560Z,1029.34
2016-11-14T07:57:32.275Z,1029.4
2016-11-14T07:58:13.011Z,1029.35
2016-11-14T07:58:53.764Z,1029.35
2016-11-14T07:59:34.505Z,1029.38
2016-11-14T08:00:15.161Z,1029.37
2016-11-14T08:00:55.741Z,1029.46
2016-11-14T08:01:36.487Z,1029.48
2016-11-14T08:02:17.132Z,1029.54
2016-11-14T08:02:57.864Z,1029.57
2016-11-14T08:03:38.639Z,1029.63
2016-11-14T08:04:19.365Z,1029.64
2016-11-14T08:05:00.075Z,1029.7
2016-11-14T08:05:40.873Z,1029.74
2016-11-14T08:06:21.515Z,1029.77
2016-11-14T08:07:02.291Z,1029.75
2016-11-14T08:07:42.865Z,1029.79
2016-11-14T08:08:23.640Z,1029.74
2016-11-14T08:09:04.263Z,1029.75
2016-11-14T08:09:44.959Z,1029.72
2016-11-14T08:10:25.609Z,1029.68
2016-11-14T08:11:06.264Z,1029.64
2016-11-14T08:11:46.928Z,1029.6
2016-11-14T08:12:27.530Z,1029.68
2016-11-14T08:13:08.288Z,1029.67
2016-11-14T08:13:48.993Z,1029.66